1976 Severe Tropical Cyclone COLIN:HOPE (1976055S06156)


IBTrACS version v04r00. Visit IBTrACS website for data access.
Please direct all questions to the IBTrACS Q and A forum

Storm track - Intensity - Wind Radii - Intensity Data - Source Data - All data

Summary Information

Storm ID 1976055S06156
Start Feb 24 00Z
Max Intensity 95 kt (Mar 1 00Z), 945 mb (Mar 2 00Z)
End Mar 7 12Z
ATCF IDs ,SH171976
Track status Best track data.

Storm track plot

Map of storm track

Intensity plots

Map of storm track

Radial wind information

No radial wind information for this storm


Position and Intensity Table

BASIN ISO_TIME_________ NATURE LAT LON WELLINGTON WIND WELLINGTON PRES NEUMANN WIND NEUMANN PRES
degrees north degrees east kts mb kts mb
SP 1976-02-24 00:00:00 TS -6.00 156.00
SP 03:00:00 TS -5.99 156.57
SP 06:00:00 TS -6.02 157.08
SP 09:00:00 TS -6.12 157.49
SP 12:00:00 TS -6.30 157.80
SP 15:00:00 TS -6.52 158.04
SP 18:00:00 TS -6.79 158.20
SP 21:00:00 TS -7.08 158.28
SP 1976-02-25 00:00:00 TS -7.40 158.30
SP 03:00:00 TS -7.74 158.32
SP 06:00:00 TS -8.09 158.31
SP 09:00:00 TS -8.44 158.27
SP 12:00:00 TS -8.80 158.20
SP 15:00:00 TS -9.20 158.12
SP 17:00:00 TS -9.52 157.89
SP 18:00:00 TS -9.74 157.54 25 1002
SP 21:00:00 TS -10.07 157.35 30 1000
SP 23:00:00 TS -10.28 157.24 33 998
SP 1976-02-26 00:00:00 TS -10.39 157.18 35 998
SP 03:00:00 TS -10.76 157.13 37 996
SP 05:00:00 TS -10.98 157.03 39 994
SP 06:00:00 TS -11.07 156.97 40 994
SP 09:00:00 TS -11.24 156.74 40 993
SP 11:00:00 TS -11.30 156.56 40 993
SP 12:00:00 TS -11.31 156.47 40 993
SP 15:00:00 TS -11.33 156.20 40 993
SP 17:00:00 TS -11.29 156.01 40 993
SP 18:00:00 TS -11.26 155.92 40 994
SP 21:00:00 TS -11.13 155.66 40 994
SP 23:00:00 TS -11.06 155.49 40 994
SP 1976-02-27 00:00:00 TS -11.05 155.40 40 994
SP 03:00:00 TS -11.14 155.14 40 993
SP 05:00:00 TS -11.25 154.95 40 993
SP 06:00:00 TS -11.31 154.86 40 993
SP 08:00:00 TS -11.44 154.72 41 991
SP 09:00:00 TS -11.51 154.65 42 991
SP 11:00:00 TS -11.63 154.56 44 990
SP 12:00:00 TS -11.68 154.53 40 990 45 990
SP 15:00:00 TS -11.78 154.41 43 987 47 988
SP 17:00:00 TS -11.84 154.35 46 985 49 987
SP 18:00:00 TS -11.88 154.32 47 985 50 987
SP 21:00:00 TS -12.04 154.23 51 982 52 985
SP 23:00:00 TS -12.19 154.20 53 980 54 983
SP 1976-02-28 00:00:00 TS -12.27 154.20 55 980 55 983
SP 03:00:00 TS -12.58 154.30 57 977 60 980
SP 05:00:00 TS -12.82 154.40 59 975 63 978
SP 06:00:00 TS -12.95 154.46 60 975 65 978
SP 09:00:00 TS -13.33 154.60 62 972 67 976
SP 11:00:00 TS -13.59 154.70 64 970 69 974
SP 12:00:00 TS -13.73 154.75 65 970 70 974
SP 15:00:00 TS -14.12 154.87 68 966 72 971
SP 17:00:00 TS -14.40 154.95 71 963 74 968
SP 18:00:00 TS -14.54 154.99 72 962 75 968
SP 21:00:00 TS -14.99 155.11 76 958 77 966
SP 23:00:00 TS -15.31 155.19 78 956 79 964
SP 1976-02-29 00:00:00 TS -15.49 155.23 80 955 80 964
SP 03:00:00 TS -16.06 155.36 78 956 82 962
SP 05:00:00 TS -16.47 155.43 77 957 84 961
SP 06:00:00 TS -16.68 155.46 77 957 85 961
SP 09:00:00 TS -17.28 155.54 76 958 87 959
SP 11:00:00 TS -17.68 155.59 75 959 89 958
SP 12:00:00 TS -17.88 155.61 75 960 90 958
SP 15:00:00 TS -18.46 155.67 75 960 90 957
SP 17:00:00 TS -18.85 155.71 75 960 90 956
SP 18:00:00 TS -19.04 155.73 75 960 90 956
SP 21:00:00 TS -19.63 155.78 75 960 92 955
SP 23:00:00 TS -20.01 155.81 75 960 94 954
SP 1976-03-01 00:00:00 TS -20.20 155.82 75 960 95 954
SP 03:00:00 TS -20.75 155.85 73 961 95 954
SP 05:00:00 TS -21.09 155.85 72 962 95 954
SP 06:00:00 TS -21.25 155.84 72 962 95 954
SP 09:00:00 TS -21.70 155.77 71 963 95 954
SP 11:00:00 TS -21.99 155.70 70 964 95 954
SP 12:00:00 TS -22.13 155.67 70 965 95 954
SP 14:00:00 TS -22.42 155.59 72 961 95 954
SP 15:00:00 TS -22.55 155.54 73 960 95 954
SP 17:00:00 TS -22.82 155.46 76 956 95 954
SP 18:00:00 TS -22.95 155.42 77 955 95 954
SP 20:00:00 TS -23.23 155.36 80 951 95 954
SP 21:00:00 TS -23.37 155.34 81 950 95 954
SP 23:00:00 TS -23.66 155.31 83 946 95 954
SP 1976-03-02 00:00:00 TS -23.81 155.30 85 945 95 955
SP 03:00:00 TS -24.25 155.29 81 950 95 955
SP 05:00:00 TS -24.55 155.31 78 953 95 955
SP 06:00:00 TS -24.70 155.33 77 955 95 955
SP 09:00:00 TS -25.17 155.43 73 960 92 956
SP 11:00:00 TS -25.48 155.53 71 963 90 956
SP 12:00:00 TS -25.64 155.59 70 965 90 957
SP 15:00:00 TS -26.13 155.82 71 963 87 958
SP 17:00:00 TS -26.45 156.01 72 962 85 959
SP 18:00:00 TS -26.61 156.10 72 962 85 960
SP 21:00:00 TS -27.07 156.38 73 961 82 962
SP 23:00:00 TS -27.37 156.57 74 960 80 963
SP 1976-03-03 00:00:00 TS -27.52 156.66 75 960 80 964
SP 03:00:00 TS -27.93 156.90 75 960 77 966
SP 05:00:00 TS -28.21 157.06 75 960 75 967
SP 06:00:00 TS -28.34 157.15 75 960 75 968
SP 09:00:00 TS -28.77 157.40 75 960 72 970
SP 11:00:00 TS -29.06 157.58 75 960 70 971
SP 12:00:00 TS -29.22 157.66 75 960 70 972
SP 15:00:00 TS -29.73 157.93 70 965 67 974
SP 17:00:00 TS -30.10 158.09 66 968 65 975
SP 18:00:00 TS -30.28 158.17 65 970 65 976
SP 20:00:00 TS -30.66 158.34 61 973 63 978
SP 21:00:00 TS -30.85 158.41 60 975 62 979
SP 23:00:00 TS -31.23 158.52 56 978 60 981
SP 1976-03-04 00:00:00 TS -31.42 158.55 55 980 60 982
SP 02:00:00 TS -31.78 158.53 55 980 58
SP 03:00:00 TS -31.94 158.50 55 980 57
SP 05:00:00 TS -32.27 158.38 55 980 55
SP 06:00:00 TS -32.41 158.31 55 980 55
SP 09:00:00 TS -32.86 158.11 55 980 55
SP 11:00:00 TS -33.19 157.93 55 980 55
SP 12:00:00 TS -33.37 157.83 55 980 55
SP 15:00:00 TS -33.99 157.44 55 980 55
SP 18:00:00 TS -34.66 156.96 55 980 55
SP 21:00:00 TS -35.37 156.48 55 980 57
SP 1976-03-05 00:00:00 TS -36.09 156.09 55 980 60
SP 03:00:00 TS -36.76 155.91 61 973 60
SP 06:00:00 TS -37.39 155.73 67 967 60
SP 09:00:00 TS -38.02 155.52 73 961 62
SP 12:00:00 TS -38.67 155.27 80 955 65
SP 15:00:00 TS -39.36 154.88 76 958 67
SP 18:00:00 TS -40.12 154.37 72 962 70
SP 21:00:00 TS -40.90 153.77 68 966 67
SP 1976-03-06 00:00:00 TS -41.60 153.07 65 970 65
SP 03:00:00 TS -41.89 152.30 62 972 60
SP 06:00:00 TS -42.20 152.30 60 975 55
SP 09:00:00 TS -42.54 152.34 57 977 47
SP 12:00:00 TS -43.00 152.50 55 980 40
SP 15:00:00 TS -43.76 152.72 51 982 37
SP 18:00:00 TS -44.61 153.06 47 985 35
SP 21:00:00 TS -45.40 153.47 43 987 32
SP 1976-03-07 00:00:00 TS -46.00 154.00 40 990 30
SP 03:00:00 TS -46.32 154.65 40 990 27
SP 06:00:00 TS -46.37 155.40 40 990 25
SP 09:00:00 TS -46.24 156.19 40 990 25
SP 12:00:00 TS -46.00 157.00 40 990 25

Source Information

Agency Information
USA bsh171976.txt
TOKYO
CMA
HKO
NEWDELHI
REUNION
BOM IDCKMSTM0S.csv:Line=10496:HOPE
NADI
WELLINGTON TC_BT_1967_2006.csv:Line=853:COLIN
DS824 s_hem.dat:1311:17P
TD9636 cons_worldwide_trop_cyclone_18710101-19891231-006:Line=10150
TD9635
NEUMANN tracks.sh:Storm=463:COLIN:BSH1776:BM468&NZeal761
MLC

All available IBTrACS Data

SEASON BASIN SUBBASIN ISO_TIME_________ NATURE LAT LON WMO AGENCY DIST2LAND LANDFALL IFLAG USA AGENCY USA ATCF_ID USA LAT USA LON USA SSHS BOM LAT BOM LON WELLINGTON LAT WELLINGTON LON WELLINGTON WIND WELLINGTON PRES DS824 LAT DS824 LON DS824 STAGE TD9636 LAT TD9636 LON TD9636 STAGE NEUMANN LAT NEUMANN LON NEUMANN CLASS NEUMANN WIND NEUMANN PRES STORM SPEED STORM DIR
Year degrees north degrees east km km degrees north degrees east 1 degrees north degrees east degrees north degrees east kts mb degrees north degrees east degrees north degrees east degrees north degrees east kts mb kts degrees
1976 SP EA 1976-02-24 00:00:00 TS -6.00 156.00 bom 47 47 O_____O__OO___ jtwc_sh SH171976 -6.00 156.00 -1 -6.00 156.00 -6.00 156.00 TC -6.00 156.00 4 11 89
1976 SP EA 03:00:00 TS -5.99 156.57 78 78 P_____P__PP___ SH171976 -5.98 156.58 -1 -5.98 156.58 -5.98 156.58 TC -6.03 156.52 4 11 91
1976 SP EA 06:00:00 TS -6.02 157.08 bom 95 95 O_____O__OP___ jtwc_sh SH171976 -6.00 157.10 -1 -6.00 157.10 -6.00 157.10 TC -6.08 157.02 4 9 98
1976 SP EA 09:00:00 TS -6.12 157.49 105 102 P_____P__PP___ SH171976 -6.11 157.50 -1 -6.11 157.50 -6.11 157.50 TC -6.16 157.45 4 8 111
1976 SP EA 12:00:00 TS -6.30 157.80 bom 111 110 O_____O__OO___ jtwc_sh SH171976 -6.30 157.80 -1 -6.30 157.80 -6.30 157.80 TC -6.30 157.80 4 7 126
1976 SP EA 15:00:00 TS -6.52 158.04 110 94 P_____P__PP___ SH171976 -6.53 158.04 -1 -6.53 158.04 -6.53 158.04 TC -6.51 158.04 4 6 141
1976 SP EA 18:00:00 TS -6.79 158.20 bom 94 60 O_____O__OP___ jtwc_sh SH171976 -6.80 158.20 -1 -6.80 158.20 -6.80 158.20 TC -6.77 158.19 4 6 158
1976 SP EA 21:00:00 TS -7.08 158.28 60 31 P_____P__PP___ SH171976 -7.08 158.28 -1 -7.08 158.28 -7.08 158.28 TC -7.07 158.27 4 6 170
1976 SP EA 1976-02-25 00:00:00 TS -7.40 158.30 bom 31 22 O_____O__OO___ jtwc_sh SH171976 -7.40 158.30 -1 -7.40 158.30 -7.40 158.30 TC -7.40 158.30 4 7 177
1976 SP EA 03:00:00 TS -7.74 158.32 24 24 P_____P__PP___ SH171976 -7.74 158.32 -1 -7.74 158.32 -7.74 158.32 TC -7.72 158.33 4 7 0
1976 SP EA 06:00:00 TS -8.09 158.31 bom 47 45 O_____O__OP___ jtwc_sh SH171976 -8.10 158.30 -1 -8.10 158.30 -8.10 158.30 TC -8.07 158.32 4 7 184
1976 SP EA 09:00:00 TS -8.44 158.27 45 33 P_____P__PP___ SH171976 -8.44 158.26 -1 -8.44 158.26 -8.44 158.26 TC -8.43 158.28 4 7 189
1976 SP EA 12:00:00 TS -8.80 158.20 bom 39 39 O_____O__OO___ jtwc_sh SH171976 -8.80 158.20 -1 -8.80 158.20 -8.80 158.20 TC -8.80 158.20 4 8 192
1976 SP EA 15:00:00 TS -9.20 158.12 70 70 P_____P__PP___ SH171976 -9.20 158.11 -1 -9.20 158.11 -9.20 158.11 TC -9.20 158.12 4 9 203
1976 SP EA 17:00:00 TS -9.52 157.89 100 112 P_____P__PP___ SH171976 -9.47 158.04 -1 -9.47 158.04 -9.47 158.04 TC -9.46 158.04 4 16 227
1976 SP EA 18:00:00 TS -9.74 157.54 bom 127 127 O_____O__OP_O_ jtwc_sh SH171976 -9.60 158.00 -1 -9.60 158.00 -9.60 158.00 TC -9.59 158.00 4 -10.30 155.70 TC 25 1002 12 224
1976 SP EA 21:00:00 TS -10.07 157.35 176 176 P_____P__PP_P_ SH171976 -9.97 157.86 -1 -9.97 157.86 -9.97 157.86 TC -9.97 157.86 4 -10.24 156.21 TC 30 1000 7 209
1976 SP EA 23:00:00 TS -10.28 157.24 201 201 P_____P__PP_P_ SH171976 -10.20 157.76 -1 -10.20 157.76 -10.20 157.76 TC -10.20 157.76 4 -10.31 156.49 TC 33 998 7 206
1976 SP EA 1976-02-26 00:00:00 TS -10.39 157.18 bom 212 212 O_____O__OO_O_ jtwc_sh SH171976 -10.30 157.70 -1 -10.30 157.70 -10.30 157.70 TC -10.30 157.70 4 -10.40 156.60 TC 35 998 7 193
1976 SP EA 03:00:00 TS -10.76 157.13 258 258 P_____P__PP_P_ SH171976 -10.58 157.51 -1 -10.58 157.51 -10.58 157.51 TC -10.57 157.54 4 -10.89 156.76 TC 37 996 7 194
1976 SP EA 05:00:00 TS -10.98 157.03 282 282 P_____P__PP_P_ SH171976 -10.73 157.37 -1 -10.73 157.37 -10.73 157.37 TC -10.73 157.42 4 -11.26 156.74 TC 39 994 7 206
1976 SP EA 06:00:00 TS -11.07 156.97 bom 293 293 O_____O__OP_O_ jtwc_sh SH171976 -10.80 157.30 -1 -10.80 157.30 -10.80 157.30 TC -10.80 157.35 4 -11.40 156.70 TC 40 994 6 227
1976 SP EA 09:00:00 TS -11.24 156.74 315 315 P_____P__PP_P_ SH171976 -10.98 157.11 -1 -10.98 157.11 -10.98 157.11 TC -10.97 157.14 4 -11.59 156.45 TC 40 993 6 240
1976 SP EA 11:00:00 TS -11.30 156.56 329 334 P_____P__PP_P_ SH171976 -11.07 156.98 -1 -11.07 156.98 -11.07 156.98 TC -11.06 156.98 4 -11.61 156.21 TC 40 993 6 255
1976 SP EA 12:00:00 TS -11.31 156.47 bom 334 334 O_____O__OO_O_ jtwc_sh SH171976 -11.10 156.90 -1 -11.10 156.90 -11.10 156.90 TC -11.10 156.90 4 -11.60 156.10 TC 40 993 5 266
1976 SP EA 15:00:00 TS -11.33 156.20 349 349 P_____P__PP_P_ SH171976 -11.17 156.61 -1 -11.17 156.61 -11.17 156.61 TC -11.19 156.62 4 -11.57 155.84 TC 40 993 5 273
1976 SP EA 17:00:00 TS -11.29 156.01 360 360 P_____P__PP_P_ SH171976 -11.19 156.41 -1 -11.19 156.41 -11.19 156.41 TC -11.22 156.42 4 -11.47 155.68 TC 40 993 6 284
1976 SP EA 18:00:00 TS -11.26 155.92 bom 365 354 O_____O__OP_O_ jtwc_sh SH171976 -11.20 156.30 -1 -11.20 156.30 -11.20 156.30 TC -11.23 156.31 4 -11.40 155.60 TC 40 994 6 295
1976 SP EA 21:00:00 TS -11.13 155.66 354 354 P_____P__PP_P_ SH171976 -11.24 155.99 -1 -11.24 155.99 -11.24 155.99 TC -11.26 156.00 4 -11.01 155.40 TC 40 994 6 295
1976 SP EA 23:00:00 TS -11.06 155.49 364 364 P_____P__PP_P_ SH171976 -11.28 155.79 -1 -11.28 155.79 -11.28 155.79 TC -11.28 155.80 4 -10.77 155.27 TC 40 994 5 286
1976 SP EA 1976-02-27 00:00:00 TS -11.05 155.40 bom 370 370 O_____O__OO_O_ jtwc_sh SH171976 -11.30 155.70 -1 -11.30 155.70 -11.30 155.70 TC -11.30 155.70 4 -10.70 155.20 TC 40 994 5 258
1976 SP EA 03:00:00 TS -11.14 155.14 389 389 P_____P__PP_P_ SH171976 -11.39 155.44 -1 -11.39 155.44 -11.39 155.44 TC -11.37 155.42 4 -10.75 154.93 TC 40 993 6 246
1976 SP EA 05:00:00 TS -11.25 154.95 404 420 P_____P__PP_P_ SH171976 -11.46 155.28 -1 -11.46 155.28 -11.46 155.28 TC -11.42 155.24 4 -10.90 154.76 TC 40 993 7 238
1976 SP EA 06:00:00 TS -11.31 154.86 bom 420 420 O_____O__OP_O_ jtwc_sh SH171976 -11.50 155.20 -1 -11.50 155.20 -11.50 155.20 TC -11.45 155.15 4 -11.00 154.70 TC 40 993 6 230
1976 SP EA 08:00:00 TS -11.44 154.72 442 448 P_____P__PP_P_ SH171976 -11.56 155.03 -1 -11.56 155.03 -11.56 155.03 TC -11.52 154.99 4 -11.23 154.62 TC 41 991 6 226
1976 SP EA 09:00:00 TS -11.51 154.65 437 437 P_____P__PP_P_ SH171976 -11.59 154.94 -1 -11.59 154.94 -11.59 154.94 TC -11.56 154.91 4 -11.36 154.60 TC 42 991 5 218
1976 SP EA 11:00:00 TS -11.63 154.56 440 432 P_____P__PP_P_ SH171976 -11.66 154.78 -1 -11.66 154.78 -11.66 154.78 TC -11.65 154.77 4 -11.60 154.59 TC 44 990 4 214
1976 SP EA 12:00:00 TS -11.68 154.53 bom 432 425 O_____O_OOO_O_ jtwc_sh SH171976 -11.70 154.70 -1 -11.70 154.70 -11.50 154.00 40 990 -11.70 154.70 TC -11.70 154.70 4 -11.70 154.60 TC 45 990 3 224
1976 SP EA 15:00:00 TS -11.78 154.41 425 425 P_____P_PPP_P_ SH171976 -11.82 154.48 -1 -11.82 154.48 -11.23 153.81 43 987 -11.82 154.48 TC -11.86 154.46 4 -11.83 154.64 TC 47 988 3 228
1976 SP EA 17:00:00 TS -11.84 154.35 425 415 P_____P_PPP_P_ SH171976 -11.93 154.35 -1 -11.93 154.35 -11.07 153.70 46 985 -11.93 154.35 TC -12.00 154.32 4 -11.87 154.68 TC 49 987 3 222
1976 SP EA 18:00:00 TS -11.88 154.32 bom 418 412 O_____O_POP_O_ jtwc_sh SH171976 -12.00 154.30 -1 -12.00 154.30 -11.01 153.65 47 985 -12.00 154.30 TC -12.07 154.26 4 -11.90 154.70 TC 50 987 4 211
1976 SP EA 21:00:00 TS -12.04 154.23 412 412 P_____P_PPP_P_ SH171976 -12.27 154.14 -1 -12.27 154.14 -10.92 153.54 51 982 -12.27 154.14 TC -12.31 154.13 4 -12.02 154.70 TC 52 985 4 201
1976 SP EA 23:00:00 TS -12.19 154.20 421 421 P_____P_PPP_P_ SH171976 -12.49 154.09 -1 -12.49 154.09 -10.95 153.50 53 980 -12.49 154.09 TC -12.50 154.10 4 -12.13 154.70 TC 54 983 5 0
1976 SP EA 1976-02-28 00:00:00 TS -12.27 154.20 bom 426 426 O_____O_OOO_O_ jtwc_sh SH171976 -12.60 154.10 -1 -12.60 154.10 -11.00 153.50 55 980 -12.60 154.10 TC -12.60 154.10 4 -12.20 154.70 TC 55 983 6 167
1976 SP EA 03:00:00 TS -12.58 154.30 451 451 P_____P_PPP_P_ SH171976 -12.94 154.25 -1 -12.94 154.25 -11.30 153.55 57 977 -12.94 154.25 TC -12.93 154.23 4 -12.48 154.75 TC 60 980 7 160
1976 SP EA 05:00:00 TS -12.82 154.40 472 472 P_____P_PPP_P_ SH171976 -13.18 154.41 -1 -13.18 154.41 -11.60 153.63 59 975 -13.18 154.41 TC -13.18 154.38 4 -12.69 154.79 TC 63 978 8 157
1976 SP EA 06:00:00 TS -12.95 154.46 bom 487 487 O_____O_POP_O_ jtwc_sh SH171976 -13.30 154.50 -1 -13.30 154.50 -11.78 153.67 60 975 -13.30 154.50 TC -13.31 154.47 4 -12.80 154.80 TC 65 978 8 159
1976 SP EA 09:00:00 TS -13.33 154.60 521 521 P_____P_PPP_P_ SH171976 -13.70 154.76 -1 -13.70 154.76 -12.36 153.83 62 972 -13.70 154.76 TC -13.70 154.74 4 -13.08 154.80 TC 67 976 8 159
1976 SP EA 11:00:00 TS -13.59 154.70 549 549 P_____P_PPP_P_ SH171976 -13.97 154.93 -1 -13.97 154.93 -12.79 153.95 64 970 -13.97 154.93 TC -13.97 154.92 4 -13.29 154.80 TC 69 974 9 160
1976 SP EA 12:00:00 TS -13.73 154.75 bom 565 565 O_____O_OOO_O_ jtwc_sh SH171976 -14.10 155.00 -1 -14.10 155.00 -13.00 154.00 65 970 -14.10 155.00 TC -14.10 155.00 4 -13.40 154.80 TC 70 974 8 163
1976 SP EA 15:00:00 TS -14.12 154.87 601 601 P_____P_PPP_P_ SH171976 -14.45 155.17 -1 -14.45 155.17 -13.59 154.13 68 966 -14.45 155.17 TC -14.45 155.17 4 -13.77 154.83 TC 72 971 8 164
1976 SP EA 17:00:00 TS -14.40 154.95 623 631 P_____P_PPP_P_ SH171976 -14.68 155.26 -1 -14.68 155.26 -14.00 154.21 71 963 -14.68 155.26 TC -14.68 155.27 4 -14.05 154.87 TC 74 968 9 165
1976 SP EA 18:00:00 TS -14.54 154.99 bom 639 639 O_____O_POP_O_ jtwc_sh SH171976 -14.80 155.30 -1 -14.80 155.30 -14.21 154.25 72 962 -14.80 155.30 TC -14.80 155.31 4 -14.20 154.90 TC 75 968 9 165
1976 SP EA 21:00:00 TS -14.99 155.11 685 685 P_____P_PPP_P_ SH171976 -15.17 155.42 -1 -15.17 155.42 -14.85 154.38 76 958 -15.17 155.42 TC -15.17 155.42 4 -14.66 155.03 TC 77 966 10 166
1976 SP EA 23:00:00 TS -15.31 155.19 717 717 P_____P_PPP_P_ SH171976 -15.45 155.48 -1 -15.45 155.48 -15.29 154.46 78 956 -15.45 155.48 TC -15.45 155.48 4 -15.01 155.14 TC 79 964 10 167
1976 SP EA 1976-02-29 00:00:00 TS -15.49 155.23 bom 733 733 O_____O_OOO_O_ jtwc_sh SH171976 -15.60 155.50 -1 -15.60 155.50 -15.50 154.50 80 955 -15.60 155.50 TC -15.60 155.50 4 -15.20 155.20 TC 80 964 12 168
1976 SP EA 03:00:00 TS -16.06 155.36 798 798 P_____P_PPP_P_ SH171976 -16.13 155.57 -1 -16.13 155.57 -16.12 154.63 78 956 -16.13 155.57 TC -16.10 155.56 4 -15.83 155.40 TC 82 962 12 169
1976 SP EA 05:00:00 TS -16.47 155.43 815 809 P_____P_PPP_P_ SH171976 -16.51 155.59 -1 -16.51 155.59 -16.54 154.72 77 957 -16.51 155.59 TC -16.46 155.58 4 -16.28 155.54 TC 84 961 13 170
1976 SP EA 06:00:00 TS -16.68 155.46 bom 811 768 O_____O_POP_O_ jtwc_sh SH171976 -16.70 155.60 -1 -16.70 155.60 -16.75 154.76 77 957 -16.70 155.60 TC -16.65 155.59 4 -16.50 155.60 TC 85 961 12 173
1976 SP EA 09:00:00 TS -17.28 155.54 759 733 P_____P_PPP_P_ SH171976 -17.25 155.61 -1 -17.25 155.61 -17.38 154.89 76 958 -17.25 155.61 TC -17.22 155.60 4 -17.16 155.76 TC 87 959 12 173
1976 SP EA 11:00:00 TS -17.68 155.59 733 725 P_____P_PPP_P_ SH171976 -17.62 155.60 -1 -17.62 155.60 -17.79 154.97 75 959 -17.62 155.60 TC -17.61 155.60 4 -17.59 155.85 TC 89 958 12 175
1976 SP EA 12:00:00 TS -17.88 155.61 bom 717 686 O_____O_OOO_O_ jtwc_sh SH171976 -17.80 155.60 -1 -17.80 155.60 -18.00 155.00 75 960 -17.80 155.60 TC -17.80 155.60 4 -17.80 155.90 TC 90 958 12 174
1976 SP EA 15:00:00 TS -18.46 155.67 678 656 P_____P_PPP_P_ SH171976 -18.35 155.60 -1 -18.35 155.60 -18.65 155.10 75 960 -18.35 155.60 TC -18.37 155.62 4 -18.41 156.06 TC 90 957 12 174
1976 SP EA 17:00:00 TS -18.85 155.71 656 642 P_____P_PPP_P_ SH171976 -18.72 155.60 -1 -18.72 155.60 -19.08 155.15 75 960 -18.72 155.60 TC -18.75 155.62 4 -18.80 156.16 TC 90 956 12 175
1976 SP EA 18:00:00 TS -19.04 155.73 bom 642 611 O_____O_POP_O_ jtwc_sh SH171976 -18.90 155.60 -1 -18.90 155.60 -19.29 155.18 75 960 -18.90 155.60 TC -18.94 155.62 4 -19.00 156.20 TC 90 956 12 175
1976 SP EA 21:00:00 TS -19.63 155.78 611 588 P_____P_PPP_P_ SH171976 -19.46 155.61 -1 -19.46 155.61 -19.92 155.25 75 960 -19.46 155.61 TC -19.49 155.62 4 -19.59 156.31 TC 92 955 12 175
1976 SP EA 23:00:00 TS -20.01 155.81 588 574 P_____P_PPP_P_ SH171976 -19.83 155.61 -1 -19.83 155.61 -20.31 155.28 75 960 -19.83 155.61 TC -19.83 155.61 4 -19.99 156.37 TC 94 954 12 176
1976 SP EA 1976-03-01 00:00:00 TS -20.20 155.82 bom 574 525 O_____O_OOO_O_ jtwc_sh SH171976 -20.00 155.60 -1 -20.00 155.60 -20.50 155.30 75 960 -20.00 155.60 TC -20.00 155.60 4 -20.20 156.40 TC 95 954 11 176
1976 SP EA 03:00:00 TS -20.75 155.85 530 486 P_____P_PPP_P_ SH171976 -20.47 155.56 -1 -20.47 155.56 -21.04 155.34 73 961 -20.47 155.56 TC -20.46 155.57 4 -20.86 156.54 TC 95 954 11 0
1976 SP EA 05:00:00 TS -21.09 155.85 486 476 P_____P_PPP_P_ SH171976 -20.76 155.52 -1 -20.76 155.52 -21.37 155.36 72 962 -20.76 155.52 TC -20.74 155.55 4 -21.30 156.60 TC 95 954 10 181
1976 SP EA 06:00:00 TS -21.25 155.84 bom 476 430 O_____O_POP_O_ jtwc_sh SH171976 -20.90 155.50 -1 -20.90 155.50 -21.53 155.37 72 962 -20.90 155.50 TC -20.88 155.53 4 -21.50 156.60 TC 95 954 9 188
1976 SP EA 09:00:00 TS -21.70 155.77 430 397 P_____P_PPP_P_ SH171976 -21.30 155.46 -1 -21.30 155.46 -21.99 155.39 71 963 -21.30 155.46 TC -21.29 155.47 4 -22.04 156.50 TC 95 954 9 190
1976 SP EA 11:00:00 TS -21.99 155.70 397 388 P_____P_PPP_P_ SH171976 -21.56 155.42 -1 -21.56 155.42 -22.27 155.40 70 964 -21.56 155.42 TC -21.56 155.43 4 -22.35 156.37 TC 95 954 9 193
1976 SP EA 12:00:00 TS -22.13 155.67 bom 388 356 O_____O_OOO_O_ jtwc_sh SH171976 -21.70 155.40 -1 -21.70 155.40 -22.40 155.40 70 965 -21.70 155.40 TC -21.70 155.40 4 -22.50 156.30 TC 95 954 9 194
1976 SP EA 14:00:00 TS -22.42 155.59 356 347 P_____P_PPP_P_ SH171976 -21.99 155.34 -1 -21.99 155.34 -22.65 155.39 72 961 -21.99 155.34 TC -21.99 155.33 4 -22.78 156.16 TC 95 954 9 195
1976 SP EA 15:00:00 TS -22.55 155.54 332 316 P_____P_PPP_P_ SH171976 -22.14 155.31 -1 -22.14 155.31 -22.77 155.38 73 960 -22.14 155.31 TC -22.14 155.29 4 -22.92 156.09 TC 95 954 8 197
1976 SP EA 17:00:00 TS -22.82 155.46 316 301 P_____P_PPP_P_ SH171976 -22.45 155.24 -1 -22.45 155.24 -23.00 155.37 76 956 -22.45 155.24 TC -22.44 155.21 4 -23.17 155.95 TC 95 954 8 195
1976 SP EA 18:00:00 TS -22.95 155.42 bom 293 278 O_____O_POP_O_ jtwc_sh SH171976 -22.60 155.20 -1 -22.60 155.20 -23.11 155.36 77 955 -22.60 155.20 TC -22.59 155.17 4 -23.30 155.90 TC 95 954 9 192
1976 SP EA 20:00:00 TS -23.23 155.36 278 256 P_____P_PPP_P_ SH171976 -22.90 155.13 -1 -22.90 155.13 -23.34 155.36 80 951 -22.90 155.13 TC -22.89 155.10 4 -23.56 155.83 TC 95 954 9 190
1976 SP EA 21:00:00 TS -23.37 155.34 256 237 P_____P_PPP_P_ SH171976 -23.05 155.09 -1 -23.05 155.09 -23.45 155.36 81 950 -23.05 155.09 TC -23.04 155.07 4 -23.69 155.81 TC 95 954 9 187
1976 SP EA 23:00:00 TS -23.66 155.31 237 231 P_____P_PPP_P_ SH171976 -23.35 155.03 -1 -23.35 155.03 -23.68 155.38 83 946 -23.35 155.03 TC -23.35 155.02 4 -23.96 155.80 TC 95 954 9 186
1976 SP EA 1976-03-02 00:00:00 TS -23.81 155.30 bom 231 211 O_____O_OOO_O_ jtwc_sh SH171976 -23.50 155.00 -1 -23.50 155.00 -23.80 155.40 85 945 -23.50 155.00 TC -23.50 155.00 4 -24.10 155.80 TC 95 955 9 0
1976 SP EA 03:00:00 TS -24.25 155.29 211 199 P_____P_PPP_P_ SH171976 -23.94 154.91 -1 -23.94 154.91 -24.21 155.51 81 950 -23.94 154.91 TC -23.96 154.95 4 -24.54 155.83 TC 95 955 9 0
1976 SP EA 05:00:00 TS -24.55 155.31 199 194 P_____P_PPP_P_ SH171976 -24.24 154.89 -1 -24.24 154.89 -24.50 155.61 78 953 -24.24 154.89 TC -24.26 154.94 4 -24.85 155.87 TC 95 955 9 174
1976 SP EA 06:00:00 TS -24.70 155.33 bom 194 192 O_____O_POP_O_ jtwc_sh SH171976 -24.40 154.90 -1 -24.40 154.90 -24.64 155.66 77 955 -24.40 154.90 TC -24.42 154.95 4 -25.00 155.90 TC 95 955 9 171
1976 SP EA 09:00:00 TS -25.17 155.43 202 202 P_____P_PPP_P_ SH171976 -24.88 154.98 -1 -24.88 154.98 -25.08 155.83 73 960 -24.88 154.98 TC -24.90 155.03 4 -25.45 155.99 TC 92 956 10 167
1976 SP EA 11:00:00 TS -25.48 155.53 218 218 P_____P_PPP_P_ SH171976 -25.22 155.11 -1 -25.22 155.11 -25.36 155.95 71 963 -25.22 155.11 TC -25.23 155.13 4 -25.75 156.06 TC 90 956 10 163
1976 SP EA 12:00:00 TS -25.64 155.59 bom 230 230 O_____O_OOO_O_ jtwc_sh SH171976 -25.40 155.20 -1 -25.40 155.20 -25.50 156.00 70 965 -25.40 155.20 TC -25.40 155.20 4 -25.90 156.10 TC 90 957 11 158
1976 SP EA 15:00:00 TS -26.13 155.82 268 268 P_____P_PPP_P_ SH171976 -25.94 155.56 -1 -25.94 155.56 -25.87 156.13 71 963 -25.94 155.56 TC -25.95 155.51 4 -26.36 156.19 TC 87 958 11 155
1976 SP EA 17:00:00 TS -26.45 156.01 285 285 P_____P_PPP_P_ SH171976 -26.31 155.85 -1 -26.31 155.85 -26.11 156.22 72 962 -26.31 155.85 TC -26.33 155.78 4 -26.66 156.26 TC 85 959 11 153
1976 SP EA 18:00:00 TS -26.61 156.10 bom 292 290 O_____O_POP_O_ jtwc_sh SH171976 -26.50 156.00 -1 -26.50 156.00 -26.23 156.26 72 962 -26.50 156.00 TC -26.52 155.92 4 -26.80 156.30 TC 85 960 11 152
1976 SP EA 21:00:00 TS -27.07 156.38 301 297 P_____P_PPP_P_ SH171976 -27.07 156.41 -1 -27.07 156.41 -26.60 156.38 73 961 -27.07 156.41 TC -27.08 156.37 4 -27.16 156.44 TC 82 962 10 151
1976 SP EA 23:00:00 TS -27.37 156.57 307 304 P_____P_PPP_P_ SH171976 -27.43 156.68 -1 -27.43 156.68 -26.86 156.46 74 960 -27.43 156.68 TC -27.43 156.66 4 -27.38 156.54 TC 80 963 10 151
1976 SP EA 1976-03-03 00:00:00 TS -27.52 156.66 bom 314 309 O_____O_OOO_O_ jtwc_sh SH171976 -27.60 156.80 -1 -27.60 156.80 -27.00 156.50 75 960 -27.60 156.80 TC -27.60 156.80 4 -27.50 156.60 TC 80 964 10 152
1976 SP EA 03:00:00 TS -27.93 156.90 325 324 P_____P_PPP_P_ SH171976 -28.02 157.12 -1 -28.02 157.12 -27.42 156.61 75 960 -28.02 157.12 TC -28.03 157.15 4 -27.88 156.79 TC 77 966 9 153
1976 SP EA 05:00:00 TS -28.21 157.06 342 342 P_____P_PPP_P_ SH171976 -28.27 157.31 -1 -28.27 157.31 -27.73 156.68 75 960 -28.27 157.31 TC -28.29 157.37 4 -28.16 156.93 TC 75 967 9 153
1976 SP EA 06:00:00 TS -28.34 157.15 bom 342 342 O_____O_POP_O_ jtwc_sh SH171976 -28.40 157.40 -1 -28.40 157.40 -27.89 156.71 75 960 -28.40 157.40 TC -28.42 157.47 4 -28.30 157.00 TC 75 968 10 152
1976 SP EA 09:00:00 TS -28.77 157.40 369 369 P_____P_PPP_P_ SH171976 -28.79 157.71 -1 -28.79 157.71 -28.41 156.84 75 960 -28.79 157.71 TC -28.80 157.75 4 -28.73 157.24 TC 72 970 10 152
1976 SP EA 11:00:00 TS -29.06 157.58 389 389 P_____P_PPP_P_ SH171976 -29.06 157.91 -1 -29.06 157.91 -28.79 156.94 75 960 -29.06 157.91 TC -29.06 157.92 4 -29.04 157.41 TC 70 971 10 154
1976 SP EA 12:00:00 TS -29.22 157.66 bom 399 399 O_____O_OOO_O_ jtwc_sh SH171976 -29.20 158.00 -1 -29.20 158.00 -29.00 157.00 75 960 -29.20 158.00 TC -29.20 158.00 4 -29.20 157.50 TC 70 972 11 156
1976 SP EA 15:00:00 TS -29.73 157.93 425 425 P_____P_PPP_P_ SH171976 -29.64 158.28 -1 -29.64 158.28 -29.76 157.29 70 965 -29.64 158.28 TC -29.64 158.27 4 -29.73 157.74 TC 67 974 11 157
1976 SP EA 17:00:00 TS -30.10 158.09 455 455 P_____P_PPP_P_ SH171976 -29.94 158.44 -1 -29.94 158.44 -30.30 157.50 66 968 -29.94 158.44 TC -29.94 158.42 4 -30.11 157.91 TC 65 975 12 159
1976 SP EA 18:00:00 TS -30.28 158.17 bom 470 470 O_____O_POP_O_ jtwc_sh SH171976 -30.10 158.50 -1 -30.10 158.50 -30.58 157.61 65 970 -30.10 158.50 TC -30.10 158.49 4 -30.30 158.00 TC 65 976 12 159
1976 SP EA 20:00:00 TS -30.66 158.34 487 496 P_____P_PPP_P_ SH171976 -30.42 158.61 -1 -30.42 158.61 -31.10 157.79 61 973 -30.42 158.61 TC -30.42 158.60 4 -30.70 158.28 TC 63 978 12 160
1976 SP EA 21:00:00 TS -30.85 158.41 498 498 P_____P_PPP_P_ SH171976 -30.58 158.65 -1 -30.58 158.65 -31.35 157.87 60 975 -30.58 158.65 TC -30.58 158.64 4 -30.91 158.41 TC 62 979 12 165
1976 SP EA 23:00:00 TS -31.23 158.52 513 513 P_____P_PPP_P_ SH171976 -30.92 158.70 -1 -30.92 158.70 -31.80 157.98 56 978 -30.92 158.70 TC -30.92 158.69 4 -31.31 158.59 TC 60 981 12 169
1976 SP EA 1976-03-04 00:00:00 TS -31.42 158.55 bom 513 513 O_____O_OOO_O_ jtwc_sh SH171976 -31.10 158.70 -1 -31.10 158.70 -32.00 158.00 55 980 -31.10 158.70 TC -31.10 158.70 4 -31.50 158.60 TC 60 982 11 178
1976 SP EA 02:00:00 TS -31.78 158.53 517 517 P_____P_PPP_P_ SH171976 -31.45 158.68 -1 -31.45 158.68 -32.21 157.97 55 980 -31.45 158.68 TC -31.46 158.68 4 -31.88 158.37 TC 58 11 184
1976 SP EA 03:00:00 TS -31.94 158.50 518 513 P_____P_PPP_P_ SH171976 -31.63 158.65 -1 -31.63 158.65 -32.29 157.93 55 980 -31.63 158.65 TC -31.64 158.65 4 -32.05 158.19 TC 57 10 195
1976 SP EA 05:00:00 TS -32.27 158.38 518 508 P_____P_PPP_P_ SH171976 -32.01 158.56 -1 -32.01 158.56 -32.41 157.81 55 980 -32.01 158.56 TC -32.01 158.56 4 -32.37 157.79 TC 55 10 199
1976 SP EA 06:00:00 TS -32.41 158.31 bom 511 507 O_____O_POP_O_ jtwc_sh SH171976 -32.20 158.50 -1 -32.20 158.50 -32.46 157.72 55 980 -32.20 158.50 TC -32.20 158.50 4 -32.50 157.60 TC 55 10 202
1976 SP EA 09:00:00 TS -32.86 158.11 511 502 P_____P_PPP_P_ SH171976 -32.79 158.28 -1 -32.79 158.28 -32.65 157.40 55 980 -32.79 158.28 TC -32.79 158.27 4 -32.70 157.30 TC 55 10 202
1976 SP EA 11:00:00 TS -33.19 157.93 502 496 P_____P_PPP_P_ SH171976 -33.20 158.10 -1 -33.20 158.10 -32.86 157.14 55 980 -33.20 158.10 TC -33.20 158.10 4 -32.86 157.12 TC 55 11 204
1976 SP EA 12:00:00 TS -33.37 157.83 bom 500 490 O_____O_OOO_O_ jtwc_sh SH171976 -33.40 158.00 -1 -33.40 158.00 -33.00 157.00 55 980 -33.40 158.00 TC -33.40 158.00 4 -33.00 157.00 TC 55 14 207
1976 SP EA 15:00:00 TS -33.99 157.44 488 477 P_____P_PPP_P_ SH171976 -33.99 157.71 -1 -33.99 157.71 -33.74 156.50 55 980 -33.99 157.71 TC -34.01 157.72 4 -33.75 156.47 TC 55 15 209
1976 SP EA 18:00:00 TS -34.66 156.96 bom 488 479 O_____O_POP_O_ jtwc_sh SH171976 -34.60 157.40 -1 -34.60 157.40 -34.64 155.94 55 980 -34.60 157.40 TC -34.63 157.39 4 -34.70 155.90 TC 55 16 210
1976 SP EA 21:00:00 TS -35.37 156.48 496 486 P_____P_PPP_P_ SH171976 -35.24 157.05 -1 -35.24 157.05 -35.60 155.41 55 980 -35.24 157.05 TC -35.26 157.05 4 -35.63 155.37 TC 57 16 206
1976 SP EA 1976-03-05 00:00:00 TS -36.09 156.09 bom 488 481 O_____O_OOO_O_ jtwc_sh SH171976 -35.90 156.70 -1 -35.90 156.70 -36.50 155.00 55 980 -35.90 156.70 TC -35.90 156.70 4 -36.50 155.00 TC 60 15 198
1976 SP EA 03:00:00 TS -36.76 155.91 491 490 P_____P_PPP_P_ SH171976 -36.55 156.40 -1 -36.55 156.40 -37.19 154.94 61 973 -36.55 156.40 TC -36.51 156.37 4 -37.19 154.93 TC 60 13 193
1976 SP EA 06:00:00 TS -37.39 155.73 bom 493 479 O_____O_POP_O_ jtwc_sh SH171976 -37.20 156.10 -1 -37.20 156.10 -37.82 155.02 67 967 -37.20 156.10 TC -37.14 156.04 4 -37.80 155.00 TC 60 13 194
1976 SP EA 09:00:00 TS -38.02 155.52 480 474 P_____P_PPP_P_ SH171976 -37.84 155.75 -1 -37.84 155.75 -38.41 155.08 73 961 -37.84 155.75 TC -37.80 155.72 4 -38.41 155.10 TC 62 13 196
1976 SP EA 12:00:00 TS -38.67 155.27 bom 480 470 O_____O_OOO_O_ jtwc_sh SH171976 -38.50 155.40 -1 -38.50 155.40 -39.00 155.00 80 955 -38.50 155.40 TC -38.50 155.40 4 -39.00 155.00 TC 65 14 201
1976 SP EA 15:00:00 TS -39.36 154.88 475 467 P_____P_PPP_P_ SH171976 -39.21 155.09 -1 -39.21 155.09 -39.67 154.47 76 958 -39.21 155.09 TC -39.27 155.10 4 -39.59 154.44 TC 67 16 205
1976 SP EA 18:00:00 TS -40.12 154.37 bom 477 452 O_____O_POP_O_ jtwc_sh SH171976 -40.00 154.80 -1 -40.00 154.80 -40.33 153.77 72 962 -40.00 154.80 TC -40.08 154.80 4 -40.20 153.70 TC 70 18 209
1976 SP EA 21:00:00 TS -40.90 153.77 452 393 P_____P_PPP_P_ SH171976 -40.88 154.50 -1 -40.88 154.50 -40.95 153.06 68 966 -40.88 154.50 TC -40.93 154.50 4 -40.89 153.01 TC 67 18 214
1976 SP EA 1976-03-06 00:00:00 TS -41.60 153.07 bom 393 322 O_____O_OOO_O_ jtwc_sh SH171976 -41.80 154.20 -1 -41.80 154.20 -41.50 152.50 65 970 -41.80 154.20 TC -41.80 154.20 4 -41.50 152.50 TC 65 15 228
1976 SP EA 03:00:00 TS -41.89 152.30 322 312 ________P___P_ SH171976 -1 -41.88 152.26 62 972 TC 4 -41.89 152.35 TC 60 8 223
1976 SP EA 06:00:00 TS -42.20 152.30 320 320 ________P___O_ -1 -42.21 152.20 60 975 4 -42.20 152.40 TC 55 7 177
1976 SP EA 09:00:00 TS -42.54 152.34 321 321 ________P___P_ -1 -42.56 152.29 57 977 4 -42.53 152.40 TC 47 8 169
1976 SP EA 12:00:00 TS -43.00 152.50 345 345 ________O___O_ -1 -43.00 152.50 55 980 -43.00 152.50 TC 40 12 167
1976 SP EA 15:00:00 TS -43.76 152.72 383 383 ________P___P_ -1 -43.76 152.70 51 982 -43.75 152.74 TC 37 17 166
1976 SP EA 18:00:00 TS -44.61 153.06 435 435 ________P___O_ -1 -44.61 153.01 47 985 -44.60 153.10 TC 35 17 162
1976 SP EA 21:00:00 TS -45.40 153.47 499 499 ________P___P_ -1 -45.40 153.45 43 987 -45.39 153.49 TC 32 15 155
1976 SP EA 1976-03-07 00:00:00 TS -46.00 154.00 566 566 ________O___O_ -1 -46.00 154.00 40 990 -46.00 154.00 TC 30 12 138
1976 SP EA 03:00:00 TS -46.32 154.65 629 629 ________P___P_ -1 -46.30 154.66 40 990 -46.33 154.65 TC 27 10 111
1976 SP EA 06:00:00 TS -46.37 155.40 681 681 ________P___O_ -1 -46.34 155.40 40 990 -46.40 155.40 TC 25 11 86
1976 SP EA 09:00:00 TS -46.24 156.19 726 723 ________P___P_ -1 -46.22 156.19 40 990 -46.26 156.19 TC 25 12 71
1976 SP EA 12:00:00 TS -46.00 157.00 723 ________O___O_ -1 -46.00 157.00 40 990 -46.00 157.00 TC 25 12 67